Time;durP1;ratioP1;P1;durP2;ratioP2;P2;SDS_P1;SDS_P2;PMS_P1;PMS_P2;Temp;Humidity;BMP_temperature;BMP_pressure;BME280_temperature;BME280_humidity;BME280_pressure;Samples;Min_cycle;Max_cycle;Signal;HPM_P1;HPM_P2
2022/09/19 00:01:10;;;;;;;24.35;6.03;;;;;;;6.43;100.00;101704.41;5112810;28;20119;-45
2022/09/19 00:03:36;;;;;;;19.42;5.18;;;;;;;6.48;100.00;101699.56;5115316;28;20028;-48
2022/09/19 00:06:02;;;;;;;17.52;5.18;;;;;;;6.50;100.00;101698.84;5115793;28;20027;-48
2022/09/19 00:08:27;;;;;;;25.20;5.45;;;;;;;6.50;100.00;101703.97;5116283;28;20427;-45
2022/09/19 00:10:52;;;;;;;28.35;5.80;;;;;;;6.48;100.00;101705.56;5116453;28;20404;-46
2022/09/19 00:13:17;;;;;;;18.30;4.88;;;;;;;6.39;100.00;101694.75;5115336;28;20028;-45
2022/09/19 00:15:48;;;;;;;23.63;4.93;;;;;;;6.47;100.00;101697.78;5116329;28;20024;-45
2022/09/19 00:18:14;;;;;;;18.63;4.45;;;;;;;6.38;100.00;101698.13;5115925;28;20027;-46
2022/09/19 00:20:41;;;;;;;22.75;5.05;;;;;;;6.40;100.00;101699.09;5115487;28;20074;-45
2022/09/19 00:26:02;;;;;;;20.40;4.88;;;;;;;6.38;100.00;101704.13;5116206;28;20039;-46
2022/09/19 00:28:29;;;;;;;19.17;4.47;;;;;;;6.36;100.00;101700.56;5115784;28;20069;-47
2022/09/19 00:30:56;;;;;;;17.27;4.78;;;;;;;6.38;100.00;101703.25;5115939;28;20428;-47
2022/09/19 00:33:22;;;;;;;22.58;4.72;;;;;;;6.41;100.00;101706.84;5114971;28;20031;-50
2022/09/19 00:35:54;;;;;;;20.80;4.40;;;;;;;6.42;100.00;101700.09;5115791;28;20467;-45
2022/09/19 00:38:22;;;;;;;23.00;5.20;;;;;;;6.41;100.00;101701.72;5115608;28;20046;-47
2022/09/19 00:40:48;;;;;;;19.23;4.55;;;;;;;6.42;100.00;101700.94;5115012;28;20028;-46
2022/09/19 00:43:16;;;;;;;21.25;4.43;;;;;;;6.41;100.00;101703.44;5115310;28;20065;-46
2022/09/19 00:45:42;;;;;;;22.25;4.55;;;;;;;6.43;100.00;101701.84;5115831;28;20035;-46
2022/09/19 00:48:08;;;;;;;20.23;4.20;;;;;;;6.47;100.00;101708.91;5114704;28;20028;-46
2022/09/19 00:50:33;;;;;;;15.07;3.97;;;;;;;6.43;100.00;101701.84;5115713;28;20045;-45
2022/09/19 00:53:06;;;;;;;25.48;4.60;;;;;;;6.49;100.00;101709.00;5115480;28;20027;-45
2022/09/19 00:55:32;;;;;;;22.40;4.53;;;;;;;6.46;100.00;101711.41;5114713;28;20043;-45
2022/09/19 00:57:57;;;;;;;25.70;4.38;;;;;;;6.47;100.00;101703.81;5115349;28;20027;-46
2022/09/19 01:00:23;;;;;;;18.65;5.22;;;;;;;6.47;100.00;101708.91;5115171;28;20039;-46
2022/09/19 01:02:48;;;;;;;20.33;4.18;;;;;;;6.48;100.00;101705.56;5116199;27;20472;-44
2022/09/19 01:05:16;;;;;;;22.23;4.07;;;;;;;6.47;100.00;101700.34;5126297;27;20023;-44
2022/09/19 01:08:01;;;;;;;20.73;4.82;;;;;;;6.47;100.00;101713.13;5115155;28;20359;-47
2022/09/19 01:10:36;;;;;;;23.98;4.57;;;;;;;6.41;100.00;101716.22;5114073;28;20069;-45
2022/09/19 01:13:29;;;;;;;19.08;3.95;;;;;;;6.39;100.00;101725.47;5115421;28;20035;-47
2022/09/19 01:16:05;;;;;;;17.75;4.45;;;;;;;6.23;100.00;101727.09;5114349;28;20114;-45
2022/09/19 01:18:46;;;;;;;16.60;4.32;;;;;;;6.29;100.00;101728.28;5114888;28;20028;-46
2022/09/19 01:21:38;;;;;;;16.13;3.90;;;;;;;6.23;100.00;101728.78;5114965;28;20031;-46
2022/09/19 01:24:37;;;;;;;24.52;4.18;;;;;;;6.23;100.00;101729.66;5114068;28;20467;-46
2022/09/19 01:27:18;;;;;;;24.70;3.95;;;;;;;6.23;100.00;101732.22;5102687;28;20043;-45
2022/09/19 01:30:05;;;;;;;18.20;4.10;;;;;;;6.19;100.00;101732.84;5114038;28;20080;-45
2022/09/19 01:32:51;;;;;;;19.42;4.10;;;;;;;6.22;100.00;101743.28;5114828;28;20028;-45
2022/09/19 01:35:24;;;;;;;18.98;4.13;;;;;;;6.20;100.00;101737.16;5114453;28;20024;-46
2022/09/19 01:38:07;;;;;;;25.52;4.95;;;;;;;6.26;100.00;101735.00;5113797;28;20035;-46
2022/09/19 01:40:33;;;;;;;19.38;4.85;;;;;;;6.31;100.00;101736.94;5114718;28;20080;-48
2022/09/19 01:42:58;;;;;;;30.45;5.05;;;;;;;6.33;100.00;101732.81;5114391;28;20463;-45
2022/09/19 01:45:36;;;;;;;27.45;5.15;;;;;;;6.43;100.00;101742.81;5113454;28;20028;-48
2022/09/19 01:48:05;;;;;;;19.27;5.03;;;;;;;6.46;100.00;101743.00;5114606;28;20043;-48
2022/09/19 01:50:56;;;;;;;25.15;5.35;;;;;;;6.55;100.00;101738.44;5114053;28;20031;-47
2022/09/19 01:53:50;;;;;;;20.20;5.13;;;;;;;6.64;100.00;101742.34;5114071;28;20447;-46
2022/09/19 01:56:36;;;;;;;29.58;5.70;;;;;;;6.70;100.00;101732.44;5113923;28;20459;-49
2022/09/19 01:59:15;;;;;;;25.52;5.75;;;;;;;6.73;100.00;101737.78;5113562;28;20055;-50
2022/09/19 02:01:50;;;;;;;22.27;5.03;;;;;;;6.70;100.00;101732.44;5114342;28;20028;-45
2022/09/19 02:04:29;;;;;;;21.15;4.57;;;;;;;6.71;100.00;101735.13;5113924;28;20023;-50
2022/09/19 02:07:07;;;;;;;18.30;4.78;;;;;;;6.71;100.00;101739.34;5114235;28;20031;-45
2022/09/19 02:09:43;;;;;;;18.05;4.50;;;;;;;6.65;100.00;101738.97;5113352;27;20504;-45
2022/09/19 02:12:10;;;;;;;21.20;4.47;;;;;;;6.55;100.00;101737.56;5113124;28;20053;-45
2022/09/19 02:14:40;;;;;;;25.35;4.68;;;;;;;6.55;100.00;101742.69;5113953;28;20019;-46
2022/09/19 02:17:09;;;;;;;25.55;4.97;;;;;;;6.47;100.00;101743.88;5113497;28;20427;-46
2022/09/19 02:19:52;;;;;;;23.13;4.22;;;;;;;6.41;100.00;101745.25;5113062;28;20027;-47
2022/09/19 02:22:38;;;;;;;22.88;4.28;;;;;;;6.39;100.00;101741.75;5113534;28;20474;-49
2022/09/19 02:25:08;;;;;;;15.30;4.00;;;;;;;6.42;100.00;101746.16;5113358;28;20459;-47
2022/09/19 02:27:41;;;;;;;18.55;4.38;;;;;;;6.34;100.00;101758.50;5112904;28;20023;-45
2022/09/19 02:30:09;;;;;;;15.73;4.35;;;;;;;6.37;100.00;101757.81;5113711;28;20048;-47
2022/09/19 02:32:36;;;;;;;17.15;4.25;;;;;;;6.38;100.00;101757.03;5113590;28;20026;-45
2022/09/19 02:35:03;;;;;;;19.92;4.55;;;;;;;6.39;100.00;101759.66;5113449;28;20475;-49
2022/09/19 02:37:32;;;;;;;25.58;4.40;;;;;;;6.38;100.00;101764.72;5113245;28;20027;-46
2022/09/19 02:40:08;;;;;;;27.33;5.00;;;;;;;6.41;100.00;101759.75;5112539;28;20043;-45
2022/09/19 02:42:48;;;;;;;19.52;5.18;;;;;;;6.38;100.00;101759.59;5113799;28;20024;-46
2022/09/19 02:45:31;;;;;;;22.05;4.13;;;;;;;6.37;100.00;101763.81;5113333;28;20068;-45
2022/09/19 02:48:08;;;;;;;22.27;4.80;;;;;;;6.39;100.00;101756.22;5112766;28;20037;-45
2022/09/19 02:50:40;;;;;;;24.08;5.18;;;;;;;6.36;100.00;101761.16;5113505;28;20031;-49
2022/09/19 02:53:12;;;;;;;24.30;4.65;;;;;;;6.37;100.00;101765.50;5113621;28;20108;-46
2022/09/19 02:55:45;;;;;;;20.70;5.13;;;;;;;6.36;100.00;101763.72;5112945;28;20024;-46
2022/09/19 02:58:13;;;;;;;26.98;4.60;;;;;;;6.39;100.00;101757.13;5113092;28;20020;-45
2022/09/19 03:00:39;;;;;;;24.73;4.68;;;;;;;6.35;100.00;101760.28;5113189;28;20462;-47
2022/09/19 03:06:11;;;;;;;19.40;4.22;;;;;;;6.45;100.00;101766.84;5083832;28;20476;-45
2022/09/19 03:08:37;;;;;;;29.83;4.45;;;;;;;6.45;100.00;101771.94;5112461;28;20055;-46
2022/09/19 03:11:08;;;;;;;26.50;4.60;;;;;;;6.43;100.00;101771.00;5113116;28;20057;-46
2022/09/19 03:13:36;;;;;;;25.25;4.78;;;;;;;6.44;100.00;101775.28;5113430;28;20096;-51
2022/09/19 03:16:08;;;;;;;23.00;4.30;;;;;;;6.48;100.00;101774.72;5112577;28;20033;-46
2022/09/19 03:18:36;;;;;;;24.33;4.43;;;;;;;6.40;100.00;101768.22;5113315;28;20024;-47
2022/09/19 03:21:06;;;;;;;24.13;4.75;;;;;;;6.42;100.00;101771.78;5113169;28;20455;-46
2022/09/19 03:23:37;;;;;;;21.60;4.85;;;;;;;6.48;100.00;101769.59;5112766;28;20027;-45
2022/09/19 03:26:08;;;;;;;20.83;4.35;;;;;;;6.52;100.00;101768.09;5113299;28;20031;-47
2022/09/19 03:28:33;;;;;;;28.27;5.00;;;;;;;6.51;100.00;101774.03;5113251;28;20026;-46
2022/09/19 03:30:59;;;;;;;22.35;4.10;;;;;;;6.49;100.00;101768.78;5112280;28;20031;-45
2022/09/19 03:33:25;;;;;;;22.20;4.35;;;;;;;6.50;100.00;101773.13;5112829;28;20023;-45
2022/09/19 03:35:50;;;;;;;24.70;4.40;;;;;;;6.50;100.00;101770.56;5112972;28;20378;-47
2022/09/19 03:38:16;;;;;;;25.33;4.60;;;;;;;6.47;100.00;101770.38;5113925;28;20047;-47
2022/09/19 03:40:41;;;;;;;24.58;4.72;;;;;;;6.59;100.00;101770.25;5116704;28;20459;-46
2022/09/19 03:43:06;;;;;;;21.92;4.32;;;;;;;6.53;100.00;101770.75;5115940;28;20019;-46
2022/09/19 03:45:32;;;;;;;21.92;4.25;;;;;;;6.55;100.00;101763.16;5116855;28;20085;-49
2022/09/19 03:47:57;;;;;;;22.38;5.07;;;;;;;6.57;100.00;101771.81;5116792;28;20517;-46
2022/09/19 03:50:23;;;;;;;22.05;5.32;;;;;;;6.59;100.00;101772.81;5115718;28;20039;-47
2022/09/19 03:52:49;;;;;;;26.85;4.75;;;;;;;6.56;100.00;101770.94;5116513;28;20087;-48
2022/09/19 03:55:15;;;;;;;24.05;4.75;;;;;;;6.57;100.00;101772.72;5116535;28;20024;-45
2022/09/19 03:57:40;;;;;;;25.75;4.38;;;;;;;6.56;100.00;101773.50;5115621;28;20367;-48
2022/09/19 04:00:06;;;;;;;28.38;5.30;;;;;;;6.62;100.00;101774.66;5116074;28;20027;-47
2022/09/19 04:02:32;;;;;;;21.38;4.10;;;;;;;6.58;100.00;101778.72;5116699;28;20071;-46
2022/09/19 04:04:58;;;;;;;21.88;4.53;;;;;;;6.55;100.00;101775.97;5115647;28;20027;-45
2022/09/19 04:07:24;;;;;;;23.67;4.60;;;;;;;6.56;100.00;101775.19;5116140;28;20433;-45
2022/09/19 04:09:50;;;;;;;17.83;5.13;;;;;;;6.52;100.00;101781.78;5119406;27;20030;-47
2022/09/19 04:12:16;;;;;;;19.05;4.45;;;;;;;6.53;100.00;101786.13;5115374;28;20407;-47
2022/09/19 04:14:41;;;;;;;19.00;4.30;;;;;;;6.50;100.00;101787.63;5116393;28;20072;-46
2022/09/19 04:17:08;;;;;;;21.75;4.32;;;;;;;6.50;100.00;101783.38;5115989;28;20102;-45
2022/09/19 04:19:33;;;;;;;24.27;4.15;;;;;;;6.55;100.00;101794.78;5115246;28;20505;-46
2022/09/19 04:21:59;;;;;;;21.90;4.93;;;;;;;6.50;100.00;101790.16;5116047;28;20024;-45
2022/09/19 04:24:26;;;;;;;22.23;5.00;;;;;;;6.50;100.00;101795.28;5115695;28;20444;-47
2022/09/19 04:26:52;;;;;;;23.25;4.75;;;;;;;6.41;100.00;101796.47;5115318;28;20227;-45
2022/09/19 04:29:19;;;;;;;27.48;4.75;;;;;;;6.48;100.00;101810.56;5115700;28;20074;-46
2022/09/19 04:31:44;;;;;;;23.85;4.68;;;;;;;6.49;100.00;101796.94;5115969;28;20028;-46
2022/09/19 04:34:14;;;;;;;21.35;4.78;;;;;;;6.46;100.00;101798.47;5114870;28;20386;-48
2022/09/19 04:36:41;;;;;;;21.80;4.85;;;;;;;6.49;100.00;101799.50;5115778;28;20024;-46
2022/09/19 04:39:06;;;;;;;20.40;4.65;;;;;;;6.46;100.00;101804.47;5115338;28;20070;-45
2022/09/19 04:41:36;;;;;;;24.02;5.00;;;;;;;6.42;100.00;101802.50;5115131;28;20463;-47
2022/09/19 04:44:04;;;;;;;22.92;4.57;;;;;;;6.42;100.00;101803.38;5115705;28;20118;-47
2022/09/19 04:46:29;;;;;;;;;;;;;;;6.49;100.00;101809.75;5115067;28;20511;-47
2022/09/19 04:48:55;;;;;;;23.58;4.55;;;;;;;6.49;100.00;101804.63;5114958;28;19947;-47
2022/09/19 04:51:21;;;;;;;24.98;5.00;;;;;;;6.50;100.00;101808.97;5115204;28;20375;-47
2022/09/19 04:53:47;;;;;;;27.25;5.07;;;;;;;6.49;100.00;101809.75;5115303;28;20094;-45
2022/09/19 04:56:12;;;;;;;23.35;5.05;;;;;;;6.50;100.00;101819.22;5115269;28;20102;-45
2022/09/19 04:58:40;;;;;;;22.58;4.63;;;;;;;6.51;100.00;101818.44;5115486;28;20413;-48
2022/09/19 05:01:05;;;;;;;25.20;5.13;;;;;;;6.56;100.00;101817.03;5114492;28;20114;-48
2022/09/19 05:03:30;;;;;;;20.35;4.57;;;;;;;6.57;100.00;101817.91;5115201;28;20052;-46
2022/09/19 05:05:56;;;;;;;22.10;4.60;;;;;;;6.54;100.00;101818.59;5115519;28;20348;-46
2022/09/19 05:08:25;;;;;;;21.30;4.95;;;;;;;6.53;100.00;101821.09;5114273;28;20026;-46
2022/09/19 05:11:02;;;;;;;25.17;4.70;;;;;;;6.58;100.00;101825.72;5115248;28;20029;-49
2022/09/19 05:13:30;;;;;;;20.70;5.22;;;;;;;6.59;100.00;101824.91;5114789;28;20447;-45
2022/09/19 05:15:57;;;;;;;24.60;5.38;;;;;;;6.64;100.00;101830.31;5114198;28;20106;-47
2022/09/19 05:18:23;;;;;;;25.23;5.63;;;;;;;6.68;100.00;101827.16;5114572;28;20036;-50
2022/09/19 05:20:51;;;;;;;19.88;4.70;;;;;;;6.66;100.00;101827.84;5114683;28;20024;-47
2022/09/19 05:23:17;;;;;;;22.75;4.75;;;;;;;6.70;100.00;101819.56;5113961;28;20019;-50
2022/09/19 05:25:42;;;;;;;29.05;6.05;;;;;;;6.74;100.00;101826.66;5114839;28;20034;-49
2022/09/19 05:28:08;;;;;;;25.80;5.35;;;;;;;6.82;100.00;101835.69;5114643;28;20024;-50
2022/09/19 05:30:39;;;;;;;33.45;5.55;;;;;;;6.82;100.00;101840.81;5113923;28;20085;-49
2022/09/19 05:33:06;;;;;;;24.33;4.88;;;;;;;6.88;100.00;101843.75;5114664;28;20055;-45
2022/09/19 05:35:32;;;;;;;27.95;5.32;;;;;;;6.90;100.00;101844.72;5113957;28;20065;-49
2022/09/19 05:37:58;;;;;;;23.98;4.88;;;;;;;6.92;100.00;101848.25;5114297;28;20039;-48
2022/09/19 05:40:25;;;;;;;23.95;4.90;;;;;;;6.91;100.00;101848.19;5114165;28;20356;-48
2022/09/19 05:42:52;;;;;;;26.63;5.57;;;;;;;6.97;100.00;101845.09;5113657;28;20408;-46
2022/09/19 05:45:17;;;;;;;27.33;5.47;;;;;;;7.02;100.00;101852.28;5114146;28;20034;-45
2022/09/19 05:47:43;;;;;;;21.15;5.03;;;;;;;7.08;100.00;101844.94;5114631;28;20057;-46
2022/09/19 05:50:11;;;;;;;23.27;4.82;;;;;;;7.14;100.00;101854.69;5113341;28;20081;-49
2022/09/19 05:55:24;;;;;;;23.85;5.47;;;;;;;7.17;100.00;101849.72;5114008;28;20517;-49
2022/09/19 05:57:55;;;;;;;28.42;5.15;;;;;;;7.24;100.00;101859.56;5112424;27;20027;-47
2022/09/19 06:00:22;;;;;;;25.88;5.60;;;;;;;7.32;100.00;101857.47;5116306;27;20027;-45
2022/09/19 06:02:55;;;;;;;22.10;4.93;;;;;;;7.38;100.00;101864.63;5114272;28;20031;-48
2022/09/19 06:05:21;;;;;;;25.13;5.20;;;;;;;7.42;100.00;101861.44;5115693;27;20020;-46
2022/09/19 06:07:47;;;;;;;20.85;4.80;;;;;;;7.47;100.00;101865.16;5113168;28;20028;-46
2022/09/19 06:10:12;;;;;;;20.30;4.38;;;;;;;7.50;100.00;101869.56;5116142;27;20027;-46
2022/09/19 06:12:38;;;;;;;23.77;5.32;;;;;;;7.53;100.00;101862.94;5131002;27;20022;-47
2022/09/19 06:15:03;;;;;;;19.33;4.80;;;;;;;7.58;100.00;101871.81;5116384;27;20031;-47
2022/09/19 06:17:29;;;;;;;24.92;6.32;;;;;;;7.65;100.00;101869.59;5119058;27;20508;-50
2022/09/19 06:19:54;;;;;;;27.33;5.72;;;;;;;7.67;100.00;101871.47;5117367;27;20027;-50
2022/09/19 06:22:19;;;;;;;23.30;5.18;;;;;;;7.69;100.00;101866.41;5112650;27;20054;-50
2022/09/19 06:24:45;;;;;;;29.88;5.40;;;;;;;7.72;100.00;101874.25;5116667;27;20031;-46
2022/09/19 06:27:11;;;;;;;17.60;4.60;;;;;;;7.73;100.00;101873.47;5117065;27;20031;-45
2022/09/19 06:29:36;;;;;;;26.33;5.80;;;;;;;7.78;100.00;101884.91;5118323;27;20023;-44
2022/09/19 06:32:02;;;;;;;22.45;5.65;;;;;;;7.83;100.00;101878.34;5127539;27;20891;-46
2022/09/19 06:34:27;;;;;;;18.85;5.32;;;;;;;7.84;100.00;101885.25;5116476;27;20024;-46
2022/09/19 06:36:53;;;;;;;21.90;5.30;;;;;;;7.88;100.00;101889.75;5130480;27;20088;-44
2022/09/19 06:39:18;;;;;;;31.15;6.22;;;;;;;7.87;100.00;101882.84;5122499;27;20057;-45
2022/09/19 06:41:46;;;;;;;23.15;6.07;;;;;;;7.88;100.00;101879.50;5123224;27;20031;-44
2022/09/19 06:44:12;;;;;;;19.70;5.38;;;;;;;7.93;100.00;101884.00;5129304;27;20046;-43
2022/09/19 06:46:37;;;;;;;27.52;5.63;;;;;;;7.98;100.00;101890.28;5114574;28;20091;-47
2022/09/19 06:49:02;;;;;;;21.83;5.97;;;;;;;8.05;100.00;101893.28;5119265;27;20069;-47
2022/09/19 06:51:29;;;;;;;18.50;5.07;;;;;;;8.15;100.00;101889.56;5120098;28;20465;-46
2022/09/19 06:53:54;;;;;;;21.70;4.95;;;;;;;8.29;100.00;101894.56;5115322;28;20019;-47
2022/09/19 06:56:19;;;;;;;22.25;4.65;;;;;;;8.39;100.00;101899.41;5116247;28;20124;-46
2022/09/19 06:58:44;;;;;;;18.45;4.75;;;;;;;8.52;100.00;101901.00;5126262;28;20428;-44
2022/09/19 07:01:10;;;;;;;24.27;4.63;;;;;;;8.66;100.00;101909.50;5124346;28;20030;-44
2022/09/19 07:03:35;;;;;;;21.55;5.13;;;;;;;8.89;100.00;101909.03;5124114;28;20027;-44
2022/09/19 07:06:01;;;;;;;24.00;5.35;;;;;;;9.10;100.00;101907.53;5118404;28;20432;-44
2022/09/19 07:08:26;;;;;;;19.45;5.25;;;;;;;9.39;100.00;101911.63;5128847;28;20122;-44
2022/09/19 07:10:52;;;;;;;20.70;4.70;;;;;;;9.63;100.00;101917.16;5117604;27;20019;-46
2022/09/19 07:13:19;;;;;;;16.25;4.15;;;;;;;9.78;100.00;101922.16;5128974;27;20019;-46
2022/09/19 07:15:44;;;;;;;16.70;3.78;;;;;;;9.83;100.00;101932.72;5124297;27;20039;-48
2022/09/19 07:18:11;;;;;;;21.67;3.80;;;;;;;9.87;100.00;101932.91;5122286;27;20386;-49
2022/09/19 07:20:37;;;;;;;17.10;4.10;;;;;;;9.97;100.00;101938.56;5130996;27;20505;-47
2022/09/19 07:23:11;;;;;;;16.10;3.50;;;;;;;9.98;100.00;101937.72;5131112;27;20156;-45
2022/09/19 07:25:37;;;;;;;20.63;3.40;;;;;;;10.15;100.00;101939.44;5117505;27;20031;-44
2022/09/19 07:28:05;;;;;;;17.05;3.13;;;;;;;10.19;100.00;101936.22;5126792;27;20030;-47
2022/09/19 07:30:31;;;;;;;;;;;;;;;10.29;100.00;101946.94;5128794;27;20038;-45
2022/09/19 07:32:58;;;;;;;19.73;3.20;;;;;;;10.43;100.00;101935.69;5123709;27;19916;-45
2022/09/19 07:35:28;;;;;;;19.45;3.25;;;;;;;10.46;100.00;101942.66;5120145;27;20035;-45
2022/09/19 07:37:55;;;;;;;16.85;3.65;;;;;;;10.49;100.00;101938.50;5119799;27;20150;-46
2022/09/19 07:40:20;;;;;;;19.85;3.35;;;;;;;10.51;100.00;101944.63;5137280;27;20347;-48
2022/09/19 07:42:46;;;;;;;20.85;3.42;;;;;;;10.57;100.00;101935.44;5123174;27;20473;-49
2022/09/19 07:45:11;;;;;;;16.83;2.97;;;;;;;10.58;100.00;101940.66;5126507;27;20535;-45
2022/09/19 07:47:47;;;;;;;15.55;3.33;;;;;;;10.81;100.00;101952.03;5116677;28;20413;-47
2022/09/19 07:50:16;;;;;;;18.27;3.92;;;;;;;10.90;100.00;101950.69;5118735;27;20028;-47
2022/09/19 07:52:43;;;;;;;14.77;3.53;;;;;;;10.91;100.00;101955.94;5124572;27;20023;-50
2022/09/19 07:55:10;;;;;;;12.05;3.42;;;;;;;11.16;100.00;101951.91;5137167;27;20126;-48
2022/09/19 07:57:36;;;;;;;15.55;3.45;;;;;;;11.21;100.00;101952.97;5135078;27;20537;-46
2022/09/19 08:00:02;;;;;;;18.40;3.53;;;;;;;11.36;100.00;101951.09;5132790;27;20122;-48
2022/09/19 08:02:27;;;;;;;20.58;3.70;;;;;;;11.53;100.00;101958.69;5115598;27;20071;-48
2022/09/19 08:04:53;;;;;;;18.83;3.22;;;;;;;11.62;100.00;101960.75;5119174;27;20057;-48
2022/09/19 08:07:18;;;;;;;17.60;2.90;;;;;;;11.47;100.00;101961.00;5124953;27;20127;-46
2022/09/19 08:09:43;;;;;;;15.43;2.75;;;;;;;11.33;100.00;101966.41;5116893;27;20386;-44
2022/09/19 08:12:11;;;;;;;17.30;3.38;;;;;;;11.20;100.00;101964.97;5122703;27;20096;-44
2022/09/19 08:14:37;;;;;;;15.85;3.47;;;;;;;11.15;100.00;101966.47;5122495;27;20531;-47
2022/09/19 08:17:03;;;;;;;21.15;3.58;;;;;;;11.18;100.00;101976.94;5118269;27;20027;-49
2022/09/19 08:19:28;;;;;;;21.92;3.25;;;;;;;11.24;100.00;101975.47;5125285;27;20035;-48
2022/09/19 08:21:53;;;;;;;23.58;3.88;;;;;;;11.35;100.00;101979.41;5136803;27;20019;-47
2022/09/19 08:24:19;;;;;;;20.25;3.33;;;;;;;11.50;100.00;101985.25;5134568;27;20030;-47
2022/09/19 08:26:44;;;;;;;18.85;3.55;;;;;;;11.76;100.00;101976.84;5136710;27;20023;-49
2022/09/19 08:29:09;;;;;;;16.85;3.20;;;;;;;11.93;100.00;101990.50;5136333;27;20110;-49
2022/09/19 08:31:36;;;;;;;15.40;3.55;;;;;;;12.19;100.00;101987.31;5135620;27;20027;-47
2022/09/19 08:34:01;;;;;;;17.30;3.63;;;;;;;12.30;100.00;101992.06;5136329;27;20059;-48
2022/09/19 08:36:27;;;;;;;18.70;4.45;;;;;;;12.57;100.00;101991.41;5136029;27;20323;-49
2022/09/19 08:38:52;;;;;;;16.15;3.30;;;;;;;12.50;100.00;101991.16;5135278;27;20055;-50
2022/09/19 08:41:57;;;;;;;20.90;3.50;;;;;;;12.77;100.00;101990.50;5135931;27;20015;-48
2022/09/19 08:44:41;;;;;;;15.05;2.90;;;;;;;12.65;100.00;101990.00;5131027;27;20027;-44
2022/09/19 08:47:11;;;;;;;22.45;3.55;;;;;;;12.76;100.00;102001.66;5114086;28;20028;-46
2022/09/19 08:49:42;;;;;;;17.48;2.78;;;;;;;12.80;99.23;102003.53;5115130;28;20375;-50
2022/09/19 08:52:38;;;;;;;17.52;3.28;;;;;;;12.87;100.00;102001.19;5115125;28;20084;-46
2022/09/19 08:55:10;;;;;;;11.60;2.53;;;;;;;12.92;99.91;101999.66;5114452;28;20387;-48
2022/09/19 08:57:44;;;;;;;15.32;3.08;;;;;;;12.93;100.00;101988.50;5114976;28;20020;-50
2022/09/19 09:00:21;;;;;;;18.83;3.13;;;;;;;13.08;100.00;101991.66;5112709;27;20057;-45
2022/09/19 09:02:52;;;;;;;;;;;;;;;13.24;100.00;101997.41;5132337;27;20076;-50
2022/09/19 09:05:24;;;;;;;15.23;2.85;;;;;;;13.57;100.00;101987.44;5135325;27;19936;-47
2022/09/19 09:07:56;;;;;;;12.75;2.60;;;;;;;13.53;98.33;101990.75;5135165;27;20031;-48
2022/09/19 09:10:50;;;;;;;25.40;3.28;;;;;;;13.78;100.00;101991.59;5135469;27;20103;-49
2022/09/19 09:13:35;;;;;;;12.18;2.53;;;;;;;14.05;100.00;101996.84;5134496;27;20102;-49
2022/09/19 09:16:19;;;;;;;16.45;2.70;;;;;;;14.04;92.50;101991.63;5135649;27;20035;-49
2022/09/19 09:18:52;;;;;;;13.75;2.47;;;;;;;14.28;95.92;101991.53;5122731;27;20027;-47
2022/09/19 09:21:46;;;;;;;13.90;2.88;;;;;;;14.31;95.75;101994.25;5114072;28;20027;-49
2022/09/19 09:24:21;;;;;;;13.80;2.47;;;;;;;14.67;89.43;101996.28;5114604;28;20069;-49
2022/09/19 09:26:50;;;;;;;15.88;2.70;;;;;;;14.95;89.55;101992.81;5115006;28;20024;-47
2022/09/19 09:29:41;;;;;;;11.70;2.53;;;;;;;15.26;88.48;101987.63;5113822;28;20462;-48
2022/09/19 09:32:15;;;;;;;14.15;2.42;;;;;;;15.53;84.64;101984.03;5114590;28;20092;-48
2022/09/19 09:34:49;;;;;;;13.60;2.13;;;;;;;15.83;78.50;101985.72;5114196;28;20032;-49
2022/09/19 09:37:23;;;;;;;13.65;2.53;;;;;;;16.02;74.09;101985.34;5115282;27;20085;-49
2022/09/19 09:40:12;;;;;;;9.70;1.90;;;;;;;16.24;72.72;101985.91;5114567;28;20051;-49
2022/09/19 09:43:02;;;;;;;13.18;2.53;;;;;;;16.82;75.10;101985.50;5113737;28;20034;-47
2022/09/19 09:45:40;;;;;;;12.32;2.50;;;;;;;17.36;69.80;101994.47;5114421;28;20023;-46
2022/09/19 09:48:34;;;;;;;10.95;2.03;;;;;;;17.98;66.79;101996.50;5114375;28;20016;-48
2022/09/19 09:51:06;;;;;;;8.25;2.25;;;;;;;18.12;61.75;101988.94;5113522;28;20036;-45
2022/09/19 09:53:53;;;;;;;14.18;2.15;;;;;;;17.75;63.95;101983.03;5114456;28;20027;-50
2022/09/19 09:56:29;;;;;;;8.48;1.63;;;;;;;17.51;63.46;101993.91;5113332;28;20016;-49
2022/09/19 09:59:07;;;;;;;10.63;1.80;;;;;;;18.04;65.02;101987.94;5114419;28;20038;-48
2022/09/19 10:04:51;;;;;;;11.23;2.22;;;;;;;18.42;61.46;101988.56;5113818;28;20450;-49
2022/09/19 10:07:33;;;;;;;13.80;2.25;;;;;;;17.50;63.49;102002.56;5113932;28;20028;-49
2022/09/19 10:10:03;;;;;;;12.07;2.30;;;;;;;16.73;63.31;101999.19;5113283;28;20065;-47
2022/09/19 10:12:38;;;;;;;12.07;2.20;;;;;;;16.18;63.99;101998.75;5113836;28;20065;-49
2022/09/19 10:15:11;;;;;;;17.15;2.33;;;;;;;15.82;65.42;102003.06;5114035;28;20047;-47
2022/09/19 10:17:42;;;;;;;10.85;2.17;;;;;;;15.68;66.90;102005.25;5113093;28;20489;-50
2022/09/19 10:20:15;;;;;;;14.98;2.40;;;;;;;15.60;67.97;102006.78;5113491;28;20034;-48
2022/09/19 10:22:41;;;;;;;10.32;2.45;;;;;;;15.48;68.54;102007.31;5114057;28;20482;-50
2022/09/19 10:25:13;;;;;;;16.05;2.53;;;;;;;15.30;72.12;102018.06;5112947;28;20107;-49
2022/09/19 10:27:41;;;;;;;11.75;2.33;;;;;;;15.29;70.86;102022.34;5113806;28;20020;-50
2022/09/19 10:30:18;;;;;;;12.57;1.70;;;;;;;15.19;68.25;102020.31;5113432;28;20024;-48
2022/09/19 10:32:45;;;;;;;15.70;2.97;;;;;;;15.04;66.44;102020.78;5112804;28;20038;-48
2022/09/19 10:35:54;;;;;;;10.23;1.83;;;;;;;15.27;70.84;102017.94;5113458;28;20031;-48
2022/09/19 10:38:23;;;;;;;10.30;1.67;;;;;;;15.42;69.39;102013.19;5029866;28;20050;-48
2022/09/19 10:40:57;;;;;;;14.90;2.00;;;;;;;15.29;68.15;102021.50;5084889;28;20376;-46
2022/09/19 10:43:38;;;;;;;11.35;2.03;;;;;;;15.25;69.55;102020.50;5092811;28;20047;-49
2022/09/19 10:46:06;;;;;;;9.43;1.52;;;;;;;15.20;67.89;102016.03;5092113;28;20038;-46
2022/09/19 10:48:32;;;;;;;;;;;;;;;15.40;71.91;102009.69;5093499;28;20507;-46
2022/09/19 10:50:59;;;;;;;14.60;2.03;;;;;;;15.55;68.43;102004.03;5093099;28;19912;-48
2022/09/19 10:53:32;;;;;;;9.10;1.75;;;;;;;15.52;67.61;102008.25;5092024;28;20386;-50
2022/09/19 10:56:04;;;;;;;12.23;2.03;;;;;;;15.62;66.55;101999.88;5093264;28;20098;-45
2022/09/19 10:58:35;;;;;;;11.60;1.63;;;;;;;15.97;68.66;102005.16;5093142;28;20082;-46
2022/09/19 11:01:02;;;;;;;12.93;1.98;;;;;;;16.42;68.16;102009.78;5092368;28;20095;-47
2022/09/19 11:03:31;;;;;;;9.48;1.63;;;;;;;16.52;65.93;102002.19;5092738;28;20027;-49
2022/09/19 11:06:03;;;;;;;12.77;2.28;;;;;;;16.45;64.80;102012.44;5092841;28;20066;-45
2022/09/19 11:08:30;;;;;;;10.18;1.80;;;;;;;16.55;64.65;102003.13;5092648;28;20463;-47
2022/09/19 11:10:56;;;;;;;12.77;1.98;;;;;;;16.55;65.89;102002.25;5093068;28;20024;-49
2022/09/19 11:13:22;;;;;;;15.07;2.28;;;;;;;16.81;61.73;101999.34;5092186;28;20024;-49
2022/09/19 11:15:51;;;;;;;15.50;2.08;;;;;;;16.81;63.35;102004.56;5092883;28;20024;-50
2022/09/19 11:18:26;;;;;;;9.77;1.92;;;;;;;17.18;64.90;102008.00;5092554;28;20360;-50
2022/09/19 11:21:07;;;;;;;19.65;2.70;;;;;;;17.18;61.79;102000.19;5092009;28;20036;-50
2022/09/19 11:23:56;;;;;;;12.93;2.00;;;;;;;17.13;63.88;102007.03;5093006;28;20031;-48
2022/09/19 11:26:41;;;;;;;13.52;2.83;;;;;;;17.06;63.51;102006.88;5092647;28;20027;-49
2022/09/19 11:29:27;;;;;;;11.25;1.80;;;;;;;16.90;62.96;102004.75;5091655;28;20016;-49
2022/09/19 11:32:06;;;;;;;11.55;2.15;;;;;;;16.67;61.78;102006.84;5092963;28;20026;-47
2022/09/19 11:34:50;;;;;;;10.50;1.95;;;;;;;16.69;65.95;102011.25;5092105;28;20046;-48
2022/09/19 11:37:44;;;;;;;12.07;2.08;;;;;;;16.62;64.83;102009.38;5094787;28;20024;-50
2022/09/19 11:40:19;;;;;;;11.38;1.83;;;;;;;16.63;64.63;102005.91;5072340;28;20052;-45
2022/09/19 11:42:59;;;;;;;14.07;2.15;;;;;;;16.99;64.58;102007.63;5071775;28;20059;-48
2022/09/19 11:45:31;;;;;;;11.98;2.70;;;;;;;18.51;59.86;102006.06;5072098;28;20527;-48